MSC Levina — 3FJR8 — position and weather

sailwx.info

Track history (hours):
 
Tides and Currents Weather Stations Pressure Air Temp Water Temp Dewpoint Dewpoint Depression Visibility Wind Speed Wind Dir Waves Ship Positions

MSC Levina

Last reported at 2016-Sep-24 22:32 UTC. Time now 2016-Sep-27 01:49 UTC.
Position N 01°15' E 104°04'.

Length 227.6 m; beam 32.2 m; draft 12.1 m.

Type: Ship (hazmat cat A). MMSI: 355609000.

Date/timePositionNaut miles runAvg speedWind from/ knotsBaromVisibWave heightAir tempDewpointWater temp
2016-Sep-24 22:32N 01°15' E 104°04'1616.1
2016-Sep-24 21:33N 01°12' E 103°49'5 2.6
2016-Sep-24 19:28N 01°16' E 103°46'0 0.0
2016-Sep-24 18:31N 01°16' E 103°46'0 0.0
2016-Sep-24 17:28N 01°16' E 103°46'0 0.0
2016-Sep-24 16:31N 01°16' E 103°46'0 0.0
2016-Sep-24 14:31N 01°16' E 103°46'0 0.0
2016-Sep-24 12:28N 01°16' E 103°46'0 0.0
2016-Sep-24 10:28N 01°16' E 103°46'0 0.0
2016-Sep-24 09:25N 01°16' E 103°46'0 0.0
2016-Sep-23 17:04N 01°16' E 103°46'0 0.0
2016-Sep-23 13:28N 01°16' E 103°46'0 0.0
2016-Sep-23 09:16N 01°16' E 103°46'0 0.0
2016-Sep-23 06:28N 01°16' E 103°46'3 1.7
2016-Sep-23 04:33N 01°13' E 103°48'7 6.8
2016-Sep-23 03:28N 01°14' E 103°55'5 4.8
2016-Sep-23 02:31N 01°15' E 103°59'1010.2
2016-Sep-23 01:33N 01°17' E 104°09'  
2016-Sep-17 21:12N 01°15' E 104°09'1320.0
2016-Sep-17 20:33N 01°13' E 103°57'11 8.7
2016-Sep-17 19:16N 01°16' E 103°46'0 0.0
2016-Sep-17 13:28N 01°16' E 103°46'0 0.0
2016-Sep-17 12:31N 01°16' E 103°46'0 0.0
2016-Sep-17 10:28N 01°16' E 103°46'0 0.0
2016-Sep-17 09:22N 01°16' E 103°46'0 0.0
2016-Sep-17 08:22N 01°16' E 103°46'0 0.0
2016-Sep-17 05:31N 01°16' E 103°46'0 0.1
2016-Sep-17 04:28N 01°16' E 103°46'16 0.9
2016-Sep-16 09:33N 01°16' E 104°02'  
Track history (hours):
 
Tides and Currents Weather Stations Pressure Air Temp Water Temp Dewpoint Dewpoint Depression Visibility Wind Speed Wind Dir Waves Ship Positions

MSC Levina

Last reported at 2016-Sep-24 22:32 UTC. Time now 2016-Sep-27 01:49 UTC.
Position N 01°15' E 104°04'.

Length 227.6 m; beam 32.2 m; draft 12.1 m.

Type: Ship (hazmat cat A). MMSI: 355609000.

Date/timePositionNaut miles runAvg speedWind from/ knotsBaromVisibWave heightAir tempDewpointWater temp
2016-Sep-24 22:32N 01°15' E 104°04'1616.1
2016-Sep-24 21:33N 01°12' E 103°49'5 2.6
2016-Sep-24 19:28N 01°16' E 103°46'0 0.0
2016-Sep-24 18:31N 01°16' E 103°46'0 0.0
2016-Sep-24 17:28N 01°16' E 103°46'0 0.0
2016-Sep-24 16:31N 01°16' E 103°46'0 0.0
2016-Sep-24 14:31N 01°16' E 103°46'0 0.0
2016-Sep-24 12:28N 01°16' E 103°46'0 0.0
2016-Sep-24 10:28N 01°16' E 103°46'0 0.0
2016-Sep-24 09:25N 01°16' E 103°46'0 0.0
2016-Sep-23 17:04N 01°16' E 103°46'0 0.0
2016-Sep-23 13:28N 01°16' E 103°46'0 0.0
2016-Sep-23 09:16N 01°16' E 103°46'0 0.0
2016-Sep-23 06:28N 01°16' E 103°46'3 1.7
2016-Sep-23 04:33N 01°13' E 103°48'7 6.8
2016-Sep-23 03:28N 01°14' E 103°55'5 4.8
2016-Sep-23 02:31N 01°15' E 103°59'1010.2
2016-Sep-23 01:33N 01°17' E 104°09'  
2016-Sep-17 21:12N 01°15' E 104°09'1320.0
2016-Sep-17 20:33N 01°13' E 103°57'11 8.7
2016-Sep-17 19:16N 01°16' E 103°46'0 0.0
2016-Sep-17 13:28N 01°16' E 103°46'0 0.0
2016-Sep-17 12:31N 01°16' E 103°46'0 0.0
2016-Sep-17 10:28N 01°16' E 103°46'0 0.0
2016-Sep-17 09:22N 01°16' E 103°46'0 0.0
2016-Sep-17 08:22N 01°16' E 103°46'0 0.0
2016-Sep-17 05:31N 01°16' E 103°46'0 0.1
2016-Sep-17 04:28N 01°16' E 103°46'16 0.9
2016-Sep-16 09:33N 01°16' E 104°02'  

Dump ship's entire track history